Погода Пико-Риверана неделю

Калифорния, США

01 - 07 сентября
  • 01сентября
    Сегодня
    +17°
    +30°
    Ясно и безоблачно
    ВремяПогодаТемператураВлажностьДавлениеВетер, м/сВероятность осадков
    02:00Ясно и безоблачно+19°C75 %757 мм1.2 м/с2 %
    05:00Ясно и безоблачно+19°C82 %756 мм0.6 м/с2 %
    08:00Ясно и безоблачно+20°C76 %757 мм0.3 м/с2 %
    11:00Ясно и безоблачно+25°C47 %757 мм2.2 м/с2 %
    14:00Ясно и безоблачно+29°C34 %756 мм3.4 м/с2 %
    17:00Ясно и безоблачно+28°C36 %755 мм4.1 м/с2 %
    20:00Ясно и безоблачно+23°C54 %756 мм3.1 м/с2 %
    23:00Ясно и безоблачно+20°C69 %757 мм1.7 м/с2 %
  • 02сентября
    Среда
    +18°
    +30°
    Ясно и безоблачно
    ВремяПогодаТемператураВлажностьДавлениеВетер, м/сВероятность осадков
    02:00Ясно и безоблачно+19°C74 %757 мм0.8 м/с2 %
    05:00Ясно и безоблачно+18°C79 %757 мм0.3 м/с2 %
    08:00Ясно и безоблачно+19°C68 %758 мм0.1 м/с2 %
    11:00Ясно и безоблачно+24°C46 %758 мм2.0 м/с2 %
    14:00Ясно и безоблачно+29°C30 %756 мм3.2 м/с2 %
    17:00Ясно и безоблачно+29°C31 %755 мм4.3 м/с2 %
    20:00Ясно и безоблачно+24°C47 %755 мм3.2 м/с2 %
    23:00Ясно и безоблачно+22°C54 %756 мм1.6 м/с2 %
  • 03сентября
    Четверг
    +18°
    +30°
    Ясно и безоблачно
    ВремяПогодаТемператураВлажностьДавлениеВетер, м/сВероятность осадков
    02:00Ясно и безоблачно+20°C67 %756 мм0.9 м/с2 %
    05:00Ясно и безоблачно+18°C71 %756 мм0.3 м/с2 %
    08:00Практически безоблачно+20°C72 %756 мм0.4 м/с2 %
    11:00Ясно и безоблачно+24°C46 %756 мм2.3 м/с2 %
    14:00Ясно и безоблачно+29°C37 %754 мм3.6 м/с2 %
    17:00Ясно и безоблачно+28°C42 %754 мм4.2 м/с2 %
    20:00Ясно и безоблачно+24°C59 %754 мм3.4 м/с2 %
    23:00Ясно и безоблачно+22°C67 %755 мм1.9 м/с2 %
  • 04сентября
    Пятница
    +18°
    +31°
    Ясно и безоблачно
    ВремяПогодаТемператураВлажностьДавлениеВетер, м/сВероятность осадков
    02:00Ясно и безоблачно+20°C79 %755 мм1.3 м/с2 %
    05:00Ясно и безоблачно+19°C86 %755 мм0.4 м/с2 %
    08:00Ясно и безоблачно+20°C75 %755 мм0.0 м/с2 %
    11:00Ясно и безоблачно+25°C49 %756 мм1.6 м/с2 %
    14:00Ясно и безоблачно+30°C32 %754 мм3.3 м/с2 %
    17:00Ясно и безоблачно+30°C31 %754 мм3.9 м/с2 %
    20:00Ясно и безоблачно+25°C58 %754 мм3.4 м/с2 %
    23:00Ясно и безоблачно+22°C70 %755 мм1.9 м/с2 %
  • 05сентября
    Суббота
    +21°
    +33°
    Ясно и безоблачно
    ВремяПогодаТемператураВлажностьДавлениеВетер, м/сВероятность осадков
    02:00Ясно и безоблачно+20°C82 %755 мм1.1 м/с2 %
    05:00Ясно и безоблачно+19°C84 %755 мм0.6 м/с5 %
    08:00Ясно и безоблачно+21°C68 %756 мм0.0 м/с13 %
    11:00Ясно и безоблачно+27°C36 %756 мм1.7 м/с14 %
    14:00Ясно и безоблачно+32°C22 %755 мм3.3 м/с19 %
    17:00Ясно и безоблачно+32°C23 %754 мм4.1 м/с20 %
    20:00Ясно и безоблачно+27°C50 %755 мм3.5 м/с19 %
    23:00Ясно и безоблачно+25°C61 %756 мм1.9 м/с19 %
  • 06сентября
    Воскресенье
    +19°
    +33°
    Ясно и безоблачно
    ВремяПогодаТемператураВлажностьДавлениеВетер, м/сВероятность осадков
    05:00Практически безоблачно+22°C77 %755 мм0.5 м/с31 %
    11:00Ясно и безоблачно+28°C48 %755 мм1.3 м/с36 %
    17:00Ясно и безоблачно+32°C47 %754 мм3.1 м/с32 %
    23:00Ясно и безоблачно+23°C62 %755 мм1.6 м/с24 %
  • 07сентября
    Понедельник
    +18°
    +32°
    Ясно и безоблачно
    ВремяПогодаТемператураВлажностьДавлениеВетер, м/сВероятность осадков
    05:00Ясно и безоблачно+20°C76 %755 мм1.4 м/с18 %
    11:00Ясно и безоблачно+28°C42 %755 мм2.3 м/с26 %
    17:00Ясно и безоблачно+29°C35 %754 мм3.8 м/с20 %
    23:00Ясно и безоблачно+21°C70 %754 мм1.7 м/с15 %
Мы используем cookies
Соглашаюсь